Terminal Aerodrome Forecast
Issued by NWS

Home | Current Version | Previous Version | Text Only | Print | Product List | Glossary On
Versions: 1 2 3 4 5 6 7 8 9 10 11 12
000
FTUS45 KVEF 210520
TAFEED
TAF
KEED 210520Z 2106/2206 32010KT P6SM SCT250
     FM210900 34012G20KT P6SM SCT250
     FM211600 01020G30KT P6SM SCT250
     FM220100 32011KT P6SM SKC=

USA.gov is the U.S. government's official web portal to all federal, state and local government web resources and services.